Time;durP1;ratioP1;P1;durP2;ratioP2;P2;SDS_P1;SDS_P2;PMS_P1;PMS_P2;Temp;Humidity;BMP_temperature;BMP_pressure;BME280_temperature;BME280_humidity;BME280_pressure;Samples;Min_cycle;Max_cycle;Signal;HPM_P1;HPM_P2
2021/12/08 00:00:09;;;;;;;79.07;33.83;;;2.00;99.90;;;;;;5010457;28;20041;-51
2021/12/08 00:02:35;;;;;;;78.90;31.20;;;2.10;99.90;;;;;;5010062;28;20111;-52
2021/12/08 00:05:00;;;;;;;82.75;33.45;;;2.10;99.90;;;;;;5010807;28;20503;-56
2021/12/08 00:07:26;;;;;;;77.72;33.90;;;2.00;99.90;;;;;;5011705;28;20030;-55
2021/12/08 00:13:03;;;;;;;79.88;30.85;;;2.10;99.90;;;;;;4959657;28;20042;-57
2021/12/08 00:15:34;;;;;;;65.68;27.00;;;2.00;99.90;;;;;;5010100;28;20487;-52
2021/12/08 00:18:01;;;;;;;77.93;33.75;;;2.00;99.90;;;;;;5011601;28;20022;-56
2021/12/08 00:20:31;;;;;;;82.03;34.30;;;2.00;99.90;;;;;;5010531;28;20467;-53
2021/12/08 00:22:57;;;;;;;77.95;32.80;;;2.00;99.90;;;;;;5011080;28;20121;-53
2021/12/08 00:25:23;;;;;;;80.97;32.30;;;2.00;99.90;;;;;;5010880;28;20026;-52
2021/12/08 00:27:49;;;;;;;81.03;33.55;;;2.00;99.90;;;;;;4994443;28;20025;-51
2021/12/08 00:30:16;;;;;;;79.00;29.27;;;2.10;99.90;;;;;;5011274;28;20052;-51
2021/12/08 00:32:43;;;;;;;78.22;30.40;;;2.00;99.90;;;;;;5011044;28;20495;-54
2021/12/08 00:35:10;;;;;;;82.43;32.42;;;2.00;99.90;;;;;;5002823;28;20507;-51
2021/12/08 00:37:35;;;;;;;78.35;32.05;;;2.00;99.90;;;;;;5010229;28;20172;-50
2021/12/08 00:40:05;;;;;;;81.97;32.90;;;2.10;99.90;;;;;;5009970;28;20048;-51
2021/12/08 00:42:31;;;;;;;73.95;31.52;;;2.00;99.90;;;;;;5011198;28;20045;-50
2021/12/08 00:44:58;;;;;;;76.85;32.28;;;2.00;99.90;;;;;;5010407;28;20052;-49
2021/12/08 00:47:24;;;;;;;87.10;35.72;;;2.00;99.90;;;;;;5010276;28;20434;-49
2021/12/08 00:49:50;;;;;;;76.40;34.20;;;2.10;99.90;;;;;;5009063;28;20038;-51
2021/12/08 00:52:15;;;;;;;74.45;32.97;;;2.10;99.90;;;;;;5010726;28;20061;-53
2021/12/08 00:54:42;;;;;;;77.13;31.23;;;2.20;99.90;;;;;;5010826;28;20026;-53
2021/12/08 00:57:08;;;;;;;68.30;30.02;;;2.20;99.90;;;;;;5011535;28;20084;-53
2021/12/08 00:59:33;;;;;;;70.30;27.67;;;2.10;99.90;;;;;;4994072;28;20368;-50
2021/12/08 01:02:02;;;;;;;75.43;30.63;;;2.10;99.90;;;;;;5009532;28;20030;-53
2021/12/08 01:04:33;;;;;;;84.15;32.20;;;2.10;99.90;;;;;;5011463;28;20030;-53
2021/12/08 01:07:00;;;;;;;75.47;33.53;;;2.10;99.90;;;;;;5008758;28;20057;-52
2021/12/08 01:09:26;;;;;;;77.10;31.90;;;2.20;99.90;;;;;;5011488;28;20030;-50
2021/12/08 01:11:52;;;;;;;75.88;32.20;;;2.20;99.90;;;;;;5009492;28;20099;-53
2021/12/08 01:14:18;;;;;;;75.40;31.25;;;2.20;99.90;;;;;;5011371;28;20046;-50
2021/12/08 01:16:44;;;;;;;74.07;31.73;;;2.10;99.90;;;;;;5009031;28;20030;-54
2021/12/08 01:19:10;;;;;;;72.40;31.05;;;2.20;99.90;;;;;;5010416;28;20026;-49
2021/12/08 01:21:36;;;;;;;67.65;28.73;;;2.10;99.90;;;;;;5008843;28;20033;-51
2021/12/08 01:24:02;;;;;;;76.57;31.98;;;2.10;99.90;;;;;;5010083;28;20036;-50
2021/12/08 01:26:28;;;;;;;72.13;30.85;;;2.10;99.90;;;;;;5008721;28;20168;-52
2021/12/08 01:28:57;;;;;;;71.40;29.08;;;2.10;99.90;;;;;;5009256;28;20097;-53
2021/12/08 01:31:24;;;;;;;75.00;32.65;;;2.20;99.90;;;;;;5009735;28;20037;-50
2021/12/08 01:33:51;;;;;;;72.13;29.70;;;2.20;99.90;;;;;;5009451;28;20037;-55
2021/12/08 01:36:17;;;;;;;73.57;30.77;;;2.20;99.90;;;;;;5008407;28;20030;-51
2021/12/08 01:38:43;;;;;;;74.40;31.20;;;2.20;99.90;;;;;;5009042;28;20044;-50
2021/12/08 01:41:09;;;;;;;69.82;29.92;;;2.20;99.90;;;;;;5008067;28;20026;-52
2021/12/08 01:45:57;;;;;;;75.82;32.25;;;2.20;99.90;;;;;;5008862;28;20104;-50
2021/12/08 01:46:26;;;;;;;71.28;30.45;;;2.20;99.90;;;;;;5008583;28;20073;-50
2021/12/08 01:48:52;;;;;;;62.40;26.10;;;2.20;99.90;;;;;;5009238;28;20038;-51
2021/12/08 01:51:18;;;;;;;67.63;28.38;;;2.20;99.90;;;;;;5009004;28;20073;-51
2021/12/08 01:53:50;;;;;;;67.50;27.80;;;2.20;99.90;;;;;;5008597;28;20455;-51
2021/12/08 01:56:17;;;;;;;;;;;2.20;99.90;;;;;;5007877;28;20084;-50
2021/12/08 01:58:42;;;;;;;68.60;26.25;;;2.20;99.90;;;;;;5009034;28;19913;-52
2021/12/08 02:01:11;;;;;;;67.07;25.55;;;2.20;99.90;;;;;;5008822;28;20037;-50
2021/12/08 02:03:38;;;;;;;71.65;28.05;;;2.20;99.90;;;;;;5001032;28;20032;-50
2021/12/08 02:06:07;;;;;;;67.88;28.85;;;2.20;99.90;;;;;;5008454;28;20391;-50
2021/12/08 02:08:33;;;;;;;67.43;28.63;;;2.20;99.90;;;;;;5009270;28;20048;-50
2021/12/08 02:11:02;;;;;;;70.53;28.35;;;2.20;99.90;;;;;;5006163;28;20088;-52
2021/12/08 02:13:30;;;;;;;74.53;31.00;;;2.20;99.90;;;;;;5008301;28;20431;-51
2021/12/08 02:15:56;;;;;;;77.65;31.63;;;2.30;99.90;;;;;;5006753;28;20483;-51
2021/12/08 02:18:22;;;;;;;56.40;19.10;;;2.20;99.90;;;;;;5009130;28;20034;-49
2021/12/08 02:20:50;;;;;;;67.00;27.52;;;2.20;99.90;;;;;;5006905;28;20543;-49
2021/12/08 02:23:18;;;;;;;75.93;29.92;;;2.30;99.90;;;;;;5008521;28;20430;-49
2021/12/08 02:25:45;;;;;;;68.68;27.77;;;2.30;99.90;;;;;;5007883;28;20030;-50
2021/12/08 02:28:11;;;;;;;70.03;27.55;;;2.30;99.90;;;;;;5009121;28;20030;-49
2021/12/08 02:30:45;;;;;;;63.13;26.98;;;2.30;99.90;;;;;;5006327;28;20377;-51
2021/12/08 02:49:23;;;;;;;56.47;25.67;;;2.40;99.90;;;;;;5011827;28;20395;-53
2021/12/08 02:51:51;;;;;;;60.80;23.23;;;2.50;99.90;;;;;;5011284;28;20030;-52
2021/12/08 02:54:18;;;;;;;60.17;24.63;;;2.50;99.90;;;;;;5011779;28;20390;-50
2021/12/08 02:56:44;;;;;;;59.88;24.33;;;2.50;99.90;;;;;;5011826;28;20121;-51
2021/12/08 02:59:10;;;;;;;62.00;26.70;;;2.50;99.90;;;;;;5011300;28;20121;-50
2021/12/08 03:01:37;;;;;;;58.08;23.73;;;2.50;99.90;;;;;;5004015;28;20086;-55
2021/12/08 03:04:04;;;;;;;61.45;23.08;;;2.50;99.90;;;;;;5011154;28;20045;-49
2021/12/08 03:06:30;;;;;;;54.78;21.75;;;2.60;99.90;;;;;;5011539;28;20456;-49
2021/12/08 03:08:56;;;;;;;59.42;25.92;;;2.60;99.90;;;;;;5011901;28;20045;-53
2021/12/08 03:11:22;;;;;;;56.05;22.38;;;2.50;99.90;;;;;;5010953;28;20034;-50
2021/12/08 03:14:07;;;;;;;55.35;24.73;;;2.60;99.90;;;;;;5010834;28;20061;-48
2021/12/08 03:16:35;;;;;;;51.50;20.90;;;2.60;99.90;;;;;;5009936;28;20034;-49
2021/12/08 03:19:01;;;;;;;50.78;22.42;;;2.60;99.90;;;;;;5011409;28;20041;-49
2021/12/08 03:21:31;;;;;;;50.47;20.48;;;2.60;99.90;;;;;;5010769;28;20498;-51
2021/12/08 03:24:11;;;;;;;54.80;23.92;;;2.60;99.90;;;;;;5009913;28;20321;-49
2021/12/08 03:26:48;;;;;;;52.85;22.13;;;2.60;99.90;;;;;;5008156;28;20033;-50
2021/12/08 03:29:22;;;;;;;52.83;22.10;;;2.60;99.90;;;;;;5010600;28;20125;-49
2021/12/08 03:31:50;;;;;;;50.67;20.92;;;2.60;99.90;;;;;;5010547;28;20046;-49
2021/12/08 03:34:19;;;;;;;51.95;19.27;;;2.60;99.90;;;;;;5010278;28;20055;-49
2021/12/08 03:36:45;;;;;;;52.10;22.30;;;2.60;99.90;;;;;;5009802;28;20336;-49
2021/12/08 03:39:10;;;;;;;53.20;22.00;;;2.60;99.90;;;;;;5009929;28;20026;-53
2021/12/08 03:41:36;;;;;;;50.50;21.92;;;2.60;99.90;;;;;;5003170;28;20391;-53
2021/12/08 03:44:04;;;;;;;43.10;22.00;;;2.60;99.90;;;;;;5009941;28;20037;-49
2021/12/08 03:46:35;;;;;;;49.08;21.65;;;2.60;99.90;;;;;;5011216;28;20491;-50
2021/12/08 03:49:01;;;;;;;48.00;19.77;;;2.60;99.90;;;;;;5009933;28;20404;-49
2021/12/08 03:51:27;;;;;;;45.55;19.90;;;2.60;99.90;;;;;;5009313;28;20108;-51
2021/12/08 03:53:52;;;;;;;51.45;21.10;;;2.70;99.90;;;;;;5010163;28;20551;-51
2021/12/08 03:56:18;;;;;;;50.88;22.20;;;2.70;99.90;;;;;;5008853;28;20053;-50
2021/12/08 03:58:44;;;;;;;46.40;19.92;;;2.70;99.90;;;;;;5010644;28;20034;-51
2021/12/08 04:01:09;;;;;;;46.03;21.42;;;2.70;99.90;;;;;;5011217;28;20031;-51
2021/12/08 04:03:37;;;;;;;47.42;21.27;;;2.70;99.90;;;;;;5009510;28;20061;-50
2021/12/08 04:06:13;;;;;;;50.08;20.50;;;2.70;99.90;;;;;;5010551;28;20038;-50
2021/12/08 04:08:45;;;;;;;49.83;19.45;;;2.70;99.90;;;;;;5009951;28;20029;-49
2021/12/08 04:11:12;;;;;;;;;;;2.70;99.90;;;;;;5011602;28;20046;-50
2021/12/08 04:14:00;;;;;;;43.05;19.23;;;2.80;99.90;;;;;;5008833;28;19913;-51
2021/12/08 04:16:33;;;;;;;46.97;20.27;;;2.70;99.90;;;;;;5011525;28;20061;-51
2021/12/08 04:19:00;;;;;;;40.83;19.60;;;2.80;99.90;;;;;;5005320;28;20145;-51
2021/12/08 04:21:27;;;;;;;42.25;19.50;;;2.80;99.90;;;;;;5010621;28;20033;-50
2021/12/08 04:23:54;;;;;;;45.85;17.65;;;2.80;99.90;;;;;;5008886;28;20030;-51
2021/12/08 04:26:25;;;;;;;36.92;18.35;;;2.80;99.90;;;;;;5010656;28;20037;-51
2021/12/08 04:28:52;;;;;;;42.88;19.90;;;2.90;99.90;;;;;;5009376;28;20034;-52
2021/12/08 04:31:31;;;;;;;40.58;18.08;;;2.90;99.90;;;;;;5010618;28;20045;-50
2021/12/08 04:34:01;;;;;;;42.10;19.45;;;2.80;99.90;;;;;;5008460;28;20026;-51
2021/12/08 04:36:32;;;;;;;43.40;18.67;;;2.80;99.90;;;;;;5010542;28;20037;-50
2021/12/08 04:39:01;;;;;;;47.90;22.02;;;2.70;99.90;;;;;;5009172;28;20032;-50
2021/12/08 04:41:37;;;;;;;46.10;20.67;;;2.70;99.90;;;;;;5010154;28;20400;-49
2021/12/08 04:44:25;;;;;;;43.80;19.90;;;2.60;99.90;;;;;;5007290;28;20092;-50
2021/12/08 04:52:20;;;;;;;43.42;20.60;;;2.30;99.90;;;;;;5008924;28;20557;-52
2021/12/08 05:00:58;;;;;;;45.00;21.80;;;2.20;99.90;;;;;;5010349;28;20068;-52
2021/12/08 05:08:41;;;;;;;45.92;23.33;;;2.10;99.90;;;;;;5009337;28;20116;-51
2021/12/08 05:11:25;;;;;;;49.92;21.98;;;2.00;99.90;;;;;;5010263;28;20033;-49
2021/12/08 05:13:59;;;;;;;47.97;20.75;;;2.00;99.90;;;;;;5008019;28;20369;-49
2021/12/08 05:16:26;;;;;;;53.20;23.25;;;2.00;99.90;;;;;;5009786;28;20030;-49
2021/12/08 05:18:55;;;;;;;53.30;24.27;;;2.00;99.90;;;;;;5008398;28;20038;-50
2021/12/08 05:21:36;;;;;;;47.28;22.15;;;2.00;99.90;;;;;;5009912;28;20030;-50
2021/12/08 05:24:11;;;;;;;51.10;22.33;;;1.90;99.90;;;;;;5008603;28;20034;-54
2021/12/08 05:26:58;;;;;;;48.60;21.85;;;1.90;99.90;;;;;;5001662;28;20036;-51
2021/12/08 05:29:37;;;;;;;47.78;22.48;;;1.90;99.90;;;;;;5008716;28;20387;-50
2021/12/08 05:32:05;;;;;;;51.53;23.67;;;1.90;99.90;;;;;;5008695;28;20100;-51
2021/12/08 05:34:33;;;;;;;51.03;24.00;;;1.90;99.90;;;;;;5008909;28;20092;-51
2021/12/08 05:37:00;;;;;;;50.40;21.40;;;1.90;99.90;;;;;;5007683;28;20434;-58
2021/12/08 05:39:28;;;;;;;50.28;22.80;;;1.90;99.90;;;;;;5005822;28;20030;-57
2021/12/08 05:41:59;;;;;;;49.83;23.52;;;1.90;99.90;;;;;;5006796;28;20075;-62
2021/12/08 05:44:25;;;;;;;51.10;24.33;;;1.80;99.90;;;;;;5009409;28;20014;-56
2021/12/08 05:46:56;;;;;;;52.67;22.85;;;1.90;99.90;;;;;;5007936;28;20057;-66
2021/12/08 05:49:23;;;;;;;43.13;20.60;;;1.90;99.90;;;;;;5009695;28;20029;-66
2021/12/08 05:51:50;;;;;;;48.92;23.25;;;1.80;99.90;;;;;;5004987;28;20065;-64
2021/12/08 05:54:24;;;;;;;52.63;24.52;;;1.70;99.90;;;;;;5008855;28;20030;-66
2021/12/08 05:56:54;;;;;;;46.08;20.98;;;1.70;99.90;;;;;;5008988;28;20026;-66
2021/12/08 05:59:21;;;;;;;49.88;24.20;;;1.70;99.90;;;;;;5009369;28;20037;-66
2021/12/08 06:02:01;;;;;;;50.42;24.15;;;1.60;99.90;;;;;;5007944;28;20490;-67
2021/12/08 06:04:29;;;;;;;51.45;24.75;;;1.60;99.90;;;;;;5009034;28;20030;-67
2021/12/08 06:06:56;;;;;;;50.55;24.23;;;1.60;99.90;;;;;;5009854;28;20033;-67
2021/12/08 06:09:24;;;;;;;51.10;25.00;;;1.60;99.90;;;;;;5014571;28;20080;-66
2021/12/08 06:11:50;;;;;;;52.97;23.70;;;1.60;99.90;;;;;;5011964;28;20038;-66
2021/12/08 06:14:17;;;;;;;52.42;25.10;;;1.60;99.90;;;;;;5013726;28;20112;-66
2021/12/08 06:16:45;;;;;;;48.70;24.88;;;1.60;99.90;;;;;;5011944;28;20037;-65
2021/12/08 06:19:14;;;;;;;49.63;22.25;;;1.50;99.90;;;;;;5008121;28;20030;-65
2021/12/08 06:21:40;;;;;;;60.38;27.38;;;1.50;99.90;;;;;;5004455;28;20491;-66
2021/12/08 06:24:09;;;;;;;46.65;22.70;;;1.50;99.90;;;;;;5010488;28;20046;-65
2021/12/08 06:26:36;;;;;;;50.85;23.58;;;1.50;99.90;;;;;;5011253;28;20029;-64
2021/12/08 06:29:04;;;;;;;49.95;21.25;;;1.50;99.90;;;;;;5012315;28;20622;-66
2021/12/08 06:31:30;;;;;;;55.63;26.00;;;1.50;99.90;;;;;;5003794;28;20034;-65
2021/12/08 06:33:58;;;;;;;55.50;25.70;;;1.50;99.90;;;;;;5011685;28;20585;-66
2021/12/08 06:37:05;;;;;;;52.50;25.33;;;1.50;99.90;;;;;;5009148;28;20045;-65
2021/12/08 06:39:36;;;;;;;55.08;26.08;;;1.50;99.90;;;;;;4970835;28;20493;-66
2021/12/08 06:42:10;;;;;;;54.85;25.08;;;1.50;99.90;;;;;;4970093;28;20075;-66
2021/12/08 06:44:40;;;;;;;56.53;25.15;;;1.50;99.90;;;;;;4959318;28;20046;-67
2021/12/08 06:47:09;;;;;;;49.13;24.48;;;1.60;99.90;;;;;;5008153;28;20097;-66
2021/12/08 06:49:36;;;;;;;48.63;24.50;;;1.60;99.90;;;;;;5011744;28;20022;-67
2021/12/08 06:52:10;;;;;;;51.38;24.23;;;1.70;99.90;;;;;;5009247;28;20037;-67
2021/12/08 06:54:44;;;;;;;55.00;24.48;;;1.60;99.90;;;;;;4992864;28;20023;-67
2021/12/08 06:57:20;;;;;;;52.45;23.65;;;1.60;99.90;;;;;;5006840;28;20420;-67
2021/12/08 07:00:23;;;;;;;48.25;23.48;;;1.60;99.90;;;;;;5004637;28;20418;-67
2021/12/08 07:05:28;;;;;;;56.08;23.92;;;1.60;99.90;;;;;;4998199;28;19917;-68
2021/12/08 07:08:01;;;;;;;60.60;25.30;;;1.60;99.90;;;;;;5005192;28;20111;-66
2021/12/08 07:10:37;;;;;;;57.75;26.00;;;1.60;99.90;;;;;;5011601;28;20173;-66
2021/12/08 07:13:25;;;;;;;51.08;24.75;;;1.60;99.90;;;;;;5011339;28;20025;-67
2021/12/08 07:15:59;;;;;;;55.63;25.67;;;1.60;99.90;;;;;;5010590;28;20045;-68
2021/12/08 07:18:38;;;;;;;56.10;26.50;;;1.70;99.90;;;;;;5012207;28;20030;-68
2021/12/08 07:21:06;;;;;;;48.47;24.55;;;1.70;99.90;;;;;;5010615;28;20025;-67
2021/12/08 07:23:52;;;;;;;55.22;23.88;;;1.70;99.90;;;;;;5010565;28;20044;-68
2021/12/08 07:26:25;;;;;;;49.55;24.30;;;1.70;99.90;;;;;;5007383;28;20380;-67
2021/12/08 07:28:53;;;;;;;51.35;23.55;;;1.80;99.90;;;;;;5011330;28;20042;-67
2021/12/08 07:31:24;;;;;;;50.72;25.08;;;1.80;99.90;;;;;;5008397;28;20025;-68
2021/12/08 07:33:49;;;;;;;52.55;24.73;;;1.80;99.90;;;;;;5003591;28;20125;-68
2021/12/08 07:36:18;;;;;;;46.25;22.60;;;1.70;99.90;;;;;;5011086;28;20092;-62
2021/12/08 07:38:49;;;;;;;49.78;24.38;;;1.80;99.90;;;;;;5010956;28;20095;-63
2021/12/08 07:41:29;;;;;;;46.83;22.58;;;1.80;99.90;;;;;;5008530;28;20041;-62
2021/12/08 07:43:56;;;;;;;54.13;24.02;;;1.80;99.90;;;;;;5009494;28;20514;-61
2021/12/08 07:46:27;;;;;;;49.50;23.15;;;1.80;99.90;;;;;;5011705;28;20026;-61
2021/12/08 07:48:59;;;;;;;46.05;22.30;;;1.80;99.90;;;;;;5007980;28;20458;-62
2021/12/08 07:51:31;;;;;;;;;;;1.80;99.90;;;;;;5007515;28;20065;-62
2021/12/08 07:53:58;;;;;;;50.33;23.77;;;1.80;99.90;;;;;;5007262;28;19917;-52
2021/12/08 07:56:26;;;;;;;50.28;25.58;;;1.90;99.90;;;;;;5008923;28;20033;-54
2021/12/08 07:58:56;;;;;;;51.03;24.10;;;2.00;99.90;;;;;;5010820;28;20484;-51
2021/12/08 08:01:30;;;;;;;48.70;24.42;;;2.20;99.90;;;;;;4996769;28;20044;-54
2021/12/08 08:03:57;;;;;;;43.30;23.15;;;2.10;99.90;;;;;;4990089;28;20066;-50
2021/12/08 08:06:44;;;;;;;46.58;22.42;;;2.20;99.90;;;;;;4990356;28;20472;-50
2021/12/08 08:09:17;;;;;;;42.08;23.48;;;2.20;99.90;;;;;;4991886;28;20120;-60
2021/12/08 08:11:48;;;;;;;45.58;23.33;;;2.20;99.90;;;;;;4989634;28;20041;-59
2021/12/08 08:14:19;;;;;;;38.17;21.20;;;2.10;99.90;;;;;;4990882;28;20140;-60
2021/12/08 08:16:45;;;;;;;42.63;22.48;;;2.10;99.90;;;;;;4996600;28;20030;-63
2021/12/08 08:19:15;;;;;;;41.50;21.30;;;2.10;99.90;;;;;;5009185;28;20392;-61
2021/12/08 08:21:51;;;;;;;44.38;23.00;;;2.00;99.90;;;;;;5008532;28;20727;-62
2021/12/08 08:24:19;;;;;;;40.45;20.13;;;2.10;99.90;;;;;;5006429;28;20034;-58
2021/12/08 08:26:49;;;;;;;43.30;21.42;;;2.10;99.90;;;;;;5008147;28;20144;-61
2021/12/08 08:29:18;;;;;;;39.78;19.92;;;2.10;99.90;;;;;;5010102;28;20538;-58
2021/12/08 08:32:00;;;;;;;36.03;19.67;;;2.10;99.90;;;;;;5010367;28;20038;-62
2021/12/08 08:34:34;;;;;;;40.70;22.20;;;2.10;99.90;;;;;;5010065;28;20026;-61
2021/12/08 08:37:03;;;;;;;41.97;22.27;;;2.10;99.90;;;;;;5010311;28;20026;-63
2021/12/08 08:39:33;;;;;;;48.13;23.23;;;2.10;99.90;;;;;;5010630;28;20043;-63
2021/12/08 08:42:05;;;;;;;47.00;22.48;;;2.20;99.90;;;;;;5025539;28;20026;-61
2021/12/08 08:45:04;;;;;;;44.88;23.00;;;2.10;99.90;;;;;;5010529;28;20112;-59
2021/12/08 08:47:49;;;;;;;44.33;21.80;;;2.20;99.90;;;;;;4995809;28;20073;-62
2021/12/08 08:50:47;;;;;;;47.83;22.70;;;2.20;99.90;;;;;;5010545;28;20137;-61
2021/12/08 08:53:17;;;;;;;42.25;22.23;;;2.20;99.90;;;;;;5009270;28;20030;-59
2021/12/08 08:55:50;;;;;;;42.97;21.48;;;2.20;99.90;;;;;;4999864;28;20042;-59
2021/12/08 08:58:18;;;;;;;43.13;22.55;;;2.20;99.90;;;;;;4990596;28;22179;-57
2021/12/08 09:01:13;;;;;;;43.08;22.15;;;2.30;99.90;;;;;;4988717;28;20080;-60
2021/12/08 09:03:41;;;;;;;43.40;22.58;;;2.30;99.90;;;;;;4990861;28;20041;-60
2021/12/08 09:06:21;;;;;;;47.90;23.55;;;2.30;99.90;;;;;;4989349;28;20133;-59
2021/12/08 09:08:47;;;;;;;42.60;22.48;;;2.30;99.90;;;;;;4986931;28;20117;-62
2021/12/08 09:11:16;;;;;;;46.83;21.73;;;2.30;99.90;;;;;;4988493;28;20048;-57
2021/12/08 09:13:54;;;;;;;43.08;23.05;;;2.30;99.90;;;;;;4996092;28;20026;-59
2021/12/08 09:16:30;;;;;;;42.40;21.65;;;2.30;99.90;;;;;;4988503;28;20152;-58
2021/12/08 09:19:14;;;;;;;42.83;22.33;;;2.40;99.90;;;;;;4996513;28;20022;-59
2021/12/08 09:21:48;;;;;;;42.03;22.40;;;2.40;99.90;;;;;;4988624;28;20144;-59
2021/12/08 09:24:21;;;;;;;41.95;22.67;;;2.40;99.90;;;;;;4988105;28;20446;-58
2021/12/08 09:26:52;;;;;;;45.88;22.00;;;2.40;99.90;;;;;;4987914;28;20160;-60
2021/12/08 09:29:24;;;;;;;39.47;21.10;;;2.40;99.90;;;;;;4987777;28;20056;-60
2021/12/08 09:32:21;;;;;;;40.40;21.65;;;2.40;99.90;;;;;;4987922;28;20806;-60
2021/12/08 09:34:58;;;;;;;41.65;22.42;;;2.40;99.90;;;;;;4989386;28;20133;-59
2021/12/08 09:37:29;;;;;;;37.38;20.55;;;2.40;99.90;;;;;;4992990;28;20081;-60
2021/12/08 09:40:03;;;;;;;42.58;22.20;;;2.50;99.90;;;;;;4990986;28;20038;-59
2021/12/08 09:42:34;;;;;;;42.10;21.58;;;2.50;99.90;;;;;;4992559;28;20034;-60
2021/12/08 09:45:06;;;;;;;45.25;21.60;;;2.60;99.90;;;;;;4991323;28;20034;-59
2021/12/08 09:47:32;;;;;;;42.83;22.23;;;2.50;99.90;;;;;;4996124;28;20054;-60
2021/12/08 09:50:00;;;;;;;42.00;22.55;;;2.60;99.90;;;;;;4996700;28;20523;-60
2021/12/08 09:52:28;;;;;;;40.22;21.20;;;2.60;99.90;;;;;;4991391;28;20096;-59
2021/12/08 09:54:56;;;;;;;41.25;21.75;;;2.60;99.90;;;;;;4992195;28;20029;-59
2021/12/08 09:57:22;;;;;;;44.45;20.13;;;2.60;99.90;;;;;;5001404;28;20040;-60
2021/12/08 09:59:48;;;;;;;38.00;20.48;;;2.60;99.90;;;;;;5009818;28;20041;-59
2021/12/08 10:02:24;;;;;;;38.80;21.85;;;2.60;99.90;;;;;;4990864;28;20092;-60
2021/12/08 10:04:49;;;;;;;42.90;21.27;;;2.60;99.90;;;;;;4992307;28;20042;-59
2021/12/08 10:07:17;;;;;;;40.67;21.73;;;2.60;99.90;;;;;;4990262;28;20443;-59
2021/12/08 10:09:42;;;;;;;42.55;20.85;;;2.70;99.90;;;;;;4991159;28;20177;-59
2021/12/08 10:12:08;;;;;;;40.53;20.80;;;2.70;99.90;;;;;;4994880;28;20042;-58
2021/12/08 10:14:34;;;;;;;43.63;22.08;;;2.70;99.90;;;;;;5004585;28;20349;-61
2021/12/08 10:17:00;;;;;;;44.13;21.05;;;2.80;99.90;;;;;;5012429;28;20415;-59
2021/12/08 10:19:26;;;;;;;38.03;21.02;;;2.80;99.90;;;;;;5012631;28;20345;-61
2021/12/08 10:21:52;;;;;;;40.60;20.63;;;2.80;99.90;;;;;;5011236;28;20029;-59
2021/12/08 10:24:23;;;;;;;44.72;21.88;;;2.80;99.90;;;;;;5012020;28;20083;-59
2021/12/08 10:26:52;;;;;;;42.17;20.33;;;2.80;99.90;;;;;;5012089;28;20113;-57
2021/12/08 10:29:28;;;;;;;41.15;19.75;;;2.80;99.90;;;;;;5011196;28;20032;-57
2021/12/08 10:31:56;;;;;;;41.05;20.85;;;2.90;99.90;;;;;;5008978;28;20053;-60
2021/12/08 10:34:26;;;;;;;40.67;20.90;;;2.90;99.90;;;;;;5012235;28;20435;-63
2021/12/08 10:36:55;;;;;;;40.22;21.17;;;2.90;99.90;;;;;;5010014;28;20033;-61
2021/12/08 10:39:26;;;;;;;46.20;19.85;;;2.90;99.90;;;;;;5010198;28;20057;-60
2021/12/08 10:42:06;;;;;;;43.88;21.10;;;2.90;99.90;;;;;;5009512;28;20506;-59
2021/12/08 10:44:40;;;;;;;40.80;21.00;;;2.90;99.90;;;;;;5011154;28;20104;-57
2021/12/08 10:47:08;;;;;;;35.85;20.42;;;2.90;99.90;;;;;;5012027;28;20113;-59
2021/12/08 10:54:51;;;;;;;38.92;20.15;;;3.00;99.90;;;;;;5011032;28;20040;-60
2021/12/08 10:57:36;;;;;;;42.42;20.58;;;3.00;99.90;;;;;;5008380;28;20034;-60
2021/12/08 11:00:04;;;;;;;39.75;20.15;;;3.00;99.90;;;;;;5006997;28;20026;-58
2021/12/08 11:02:36;;;;;;;37.42;18.85;;;3.10;99.90;;;;;;5010437;28;20033;-60
2021/12/08 11:05:03;;;;;;;44.00;21.60;;;3.10;99.90;;;;;;5009870;28;20022;-58
2021/12/08 11:07:29;;;;;;;41.55;20.85;;;3.00;99.90;;;;;;5011956;28;20506;-58
2021/12/08 11:09:55;;;;;;;38.67;20.70;;;3.10;99.90;;;;;;5010696;28;20045;-59
2021/12/08 11:12:21;;;;;;;45.35;20.98;;;3.20;99.90;;;;;;5011132;28;20022;-60
2021/12/08 11:14:49;;;;;;;39.83;20.13;;;3.20;99.90;;;;;;5011718;28;20079;-59
2021/12/08 11:17:27;;;;;;;38.75;19.98;;;3.10;99.90;;;;;;5011673;28;20029;-59
2021/12/08 11:20:15;;;;;;;41.60;18.80;;;3.20;99.90;;;;;;5011990;28;20026;-58
2021/12/08 11:22:44;;;;;;;42.67;20.95;;;3.10;99.90;;;;;;5003703;28;20026;-58
2021/12/08 11:25:21;;;;;;;40.38;18.70;;;3.10;99.90;;;;;;5011210;28;20034;-60
2021/12/08 11:27:47;;;;;;;39.92;20.88;;;3.10;99.90;;;;;;5004599;28;20123;-61
2021/12/08 11:30:15;;;;;;;37.83;19.55;;;3.20;99.90;;;;;;5007422;28;20070;-60
2021/12/08 11:32:41;;;;;;;40.45;20.63;;;3.10;99.90;;;;;;5010193;28;20108;-57
2021/12/08 11:35:21;;;;;;;39.63;19.83;;;3.10;99.90;;;;;;5008354;28;20113;-58
2021/12/08 11:38:00;;;;;;;41.97;20.92;;;3.20;99.90;;;;;;4989861;28;20038;-56
2021/12/08 11:40:26;;;;;;;46.00;21.63;;;3.10;99.90;;;;;;5002109;28;20026;-50
2021/12/08 11:42:52;;;;;;;41.13;21.27;;;3.20;99.90;;;;;;5008451;28;20030;-51
2021/12/08 11:45:19;;;;;;;39.28;19.65;;;3.20;99.90;;;;;;5009450;28;20113;-51
2021/12/08 11:47:44;;;;;;;36.50;19.02;;;3.30;99.90;;;;;;5009048;28;20034;-51
2021/12/08 11:50:14;;;;;;;40.15;19.27;;;3.30;99.90;;;;;;5010045;28;20030;-51
2021/12/08 11:52:40;;;;;;;38.47;20.83;;;3.30;99.90;;;;;;5010439;28;20543;-51
2021/12/08 11:55:09;;;;;;;42.33;20.85;;;3.30;99.90;;;;;;5011055;28;20053;-54
2021/12/08 11:57:42;;;;;;;40.47;21.17;;;3.30;99.90;;;;;;5010930;28;20026;-50
2021/12/08 12:00:34;;;;;;;41.33;20.95;;;3.30;99.90;;;;;;5011428;28;20037;-51
2021/12/08 12:03:01;;;;;;;43.67;21.50;;;3.30;99.90;;;;;;5003216;28;20160;-52
2021/12/08 12:05:47;;;;;;;41.50;21.00;;;3.40;99.90;;;;;;5010193;28;20555;-50
2021/12/08 12:08:19;;;;;;;34.63;19.65;;;3.40;99.90;;;;;;5011670;28;20042;-52
2021/12/08 12:10:54;;;;;;;37.00;19.67;;;3.40;99.90;;;;;;5011404;28;20077;-49
2021/12/08 12:13:20;;;;;;;41.72;19.77;;;3.40;99.90;;;;;;5008721;28;20177;-52
2021/12/08 12:15:48;;;;;;;42.20;21.30;;;3.40;99.90;;;;;;5009242;28;20030;-49
2021/12/08 12:18:17;;;;;;;39.90;20.48;;;3.40;99.90;;;;;;5010343;28;20049;-52
2021/12/08 12:20:46;;;;;;;37.08;19.30;;;3.40;99.90;;;;;;5009317;28;20029;-50
2021/12/08 12:23:49;;;;;;;36.50;19.25;;;3.50;99.90;;;;;;5010019;28;20076;-56
2021/12/08 12:26:39;;;;;;;39.58;19.65;;;3.50;99.90;;;;;;5009008;28;20029;-50
2021/12/08 12:29:36;;;;;;;35.83;18.85;;;3.50;99.90;;;;;;5005942;28;20032;-52
2021/12/08 12:32:32;;;;;;;37.95;19.25;;;3.50;99.90;;;;;;4996341;28;20526;-54
2021/12/08 12:35:19;;;;;;;34.72;18.23;;;3.60;99.90;;;;;;4998436;28;20049;-53
2021/12/08 12:37:46;;;;;;;40.65;20.13;;;3.50;99.90;;;;;;5003302;28;20037;-55
2021/12/08 12:40:18;;;;;;;42.20;20.10;;;3.60;99.90;;;;;;5009572;28;20038;-56
2021/12/08 12:42:53;;;;;;;35.25;18.30;;;3.60;99.90;;;;;;5009378;28;20038;-56
2021/12/08 12:45:21;;;;;;;39.22;19.85;;;3.60;99.90;;;;;;5009458;28;20050;-52
2021/12/08 12:48:08;;;;;;;43.08;20.88;;;3.60;99.90;;;;;;5009808;28;20393;-53
2021/12/08 12:50:57;;;;;;;39.28;20.13;;;3.50;99.90;;;;;;5007949;28;20245;-56
2021/12/08 12:53:33;;;;;;;38.97;20.17;;;3.60;99.90;;;;;;5009492;28;20041;-56
2021/12/08 12:55:58;;;;;;;41.30;19.83;;;3.50;99.90;;;;;;5009714;28;20049;-57
2021/12/08 12:58:51;;;;;;;41.00;20.92;;;3.60;99.90;;;;;;5009207;28;20112;-57
2021/12/08 13:01:30;;;;;;;38.97;20.48;;;3.50;99.90;;;;;;5007819;28;20587;-53
2021/12/08 13:03:58;;;;;;;40.78;20.75;;;3.50;99.90;;;;;;5007929;28;20089;-50
2021/12/08 13:06:52;;;;;;;44.30;20.65;;;3.50;99.90;;;;;;5009204;28;20030;-54
2021/12/08 13:09:40;;;;;;;42.97;21.63;;;3.50;99.90;;;;;;5007298;28;20034;-60
2021/12/08 13:12:15;;;;;;;42.15;20.33;;;3.50;99.90;;;;;;5007834;28;20065;-50
2021/12/08 13:14:44;;;;;;;43.75;21.67;;;3.50;99.90;;;;;;5002337;28;20539;-58
2021/12/08 13:17:17;;;;;;;44.70;22.13;;;3.50;99.90;;;;;;5005226;28;20547;-53
2021/12/08 13:19:46;;;;;;;44.65;23.08;;;3.50;99.90;;;;;;5000968;28;20057;-51
2021/12/08 13:22:51;;;;;;;44.10;21.98;;;3.60;99.90;;;;;;5008032;28;20107;-52
2021/12/08 13:25:32;;;;;;;43.60;22.23;;;3.50;99.90;;;;;;5010134;28;20054;-49
2021/12/08 13:28:40;;;;;;;48.30;22.60;;;3.50;99.90;;;;;;5008107;28;20112;-49
2021/12/08 13:31:18;;;;;;;41.90;21.02;;;3.50;99.90;;;;;;4983926;28;20038;-53
2021/12/08 13:33:58;;;;;;;36.30;19.20;;;3.60;99.90;;;;;;5001257;28;20368;-49
2021/12/08 13:36:28;;;;;;;51.70;22.05;;;3.50;99.90;;;;;;5008749;28;20029;-54
2021/12/08 13:38:57;;;;;;;43.10;21.98;;;3.50;99.90;;;;;;5009147;28;20029;-54
2021/12/08 13:41:24;;;;;;;43.55;21.00;;;3.50;99.90;;;;;;5008591;28;20076;-52
2021/12/08 13:43:50;;;;;;;43.75;21.75;;;3.50;99.90;;;;;;5008900;28;20100;-52